createdAt,value
2016-12-06T00:01:06.686Z,19.85
2016-12-06T00:02:17.237Z,19.76
2016-12-06T00:03:27.805Z,19.82
2016-12-06T00:04:38.372Z,19.85
2016-12-06T00:05:48.932Z,19.83
2016-12-06T00:06:59.474Z,19.82
2016-12-06T00:08:10.032Z,19.85
2016-12-06T00:09:20.724Z,19.82
2016-12-06T00:10:31.286Z,19.83
2016-12-06T00:11:41.849Z,19.8
2016-12-06T00:12:52.388Z,19.67
2016-12-06T00:14:02.963Z,19.65
2016-12-06T00:15:28.024Z,19.65
2016-12-06T00:16:39.070Z,19.6
2016-12-06T00:17:50.118Z,19.6
2016-12-06T00:19:00.669Z,19.68
2016-12-06T00:20:11.443Z,19.72
2016-12-06T00:21:21.991Z,19.67
2016-12-06T00:22:33.130Z,19.67
2016-12-06T00:23:43.718Z,19.83
2016-12-06T00:24:54.306Z,19.79
2016-12-06T00:27:44.802Z,19.65
2016-12-06T00:28:55.248Z,19.65
2016-12-06T00:31:45.693Z,19.67
2016-12-06T00:32:56.104Z,19.67
2016-12-06T00:34:06.520Z,19.7
2016-12-06T00:35:16.956Z,19.71
2016-12-06T00:36:27.414Z,19.71
2016-12-06T00:37:38.064Z,19.86
2016-12-06T00:38:48.503Z,19.76
2016-12-06T00:39:58.954Z,19.82
2016-12-06T00:41:09.396Z,19.8
2016-12-06T00:42:19.836Z,19.89
2016-12-06T00:43:30.280Z,19.78
2016-12-06T00:44:40.734Z,19.92
2016-12-06T00:45:51.195Z,19.95
2016-12-06T00:47:01.635Z,19.98
2016-12-06T00:48:12.285Z,19.97
2016-12-06T00:49:23.154Z,19.85
2016-12-06T00:50:48.181Z,19.86
2016-12-06T00:51:58.622Z,19.97
2016-12-06T00:53:23.597Z,19.92
2016-12-06T00:54:48.977Z,19.97
2016-12-06T00:55:59.401Z,20.1
2016-12-06T00:57:09.812Z,20.04
2016-12-06T00:58:20.259Z,20.08
2016-12-06T00:59:30.704Z,20.12
2016-12-06T01:00:41.235Z,20.15
2016-12-06T01:02:06.244Z,20.1
2016-12-06T01:03:16.729Z,19.98
2016-12-06T01:04:27.671Z,20.01
2016-12-06T01:05:38.380Z,20.08
2016-12-06T01:07:03.375Z,20.04
2016-12-06T01:08:13.859Z,19.94
2016-12-06T01:09:24.363Z,20.02
2016-12-06T01:10:34.833Z,19.98
2016-12-06T01:11:59.854Z,19.95
2016-12-06T01:13:24.869Z,19.79
2016-12-06T01:14:35.353Z,19.85
2016-12-06T01:15:45.805Z,19.76
2016-12-06T01:16:56.256Z,19.67
2016-12-06T01:18:06.720Z,19.65
2016-12-06T01:19:17.187Z,19.65
2016-12-06T01:20:27.650Z,19.76
2016-12-06T01:21:38.165Z,19.7
2016-12-06T01:22:48.606Z,19.62
2016-12-06T01:23:59.065Z,19.65
2016-12-06T01:25:09.725Z,19.64
2016-12-06T01:26:20.202Z,19.65
2016-12-06T01:27:30.885Z,19.65
2016-12-06T01:28:41.398Z,19.62
2016-12-06T01:29:51.851Z,19.76
2016-12-06T01:31:02.314Z,19.68
2016-12-06T01:32:12.791Z,19.79
2016-12-06T01:33:23.449Z,19.8
2016-12-06T01:34:33.924Z,19.85
2016-12-06T01:35:44.413Z,19.79
2016-12-06T01:36:54.810Z,19.78
2016-12-06T01:38:05.159Z,19.79
2016-12-06T01:39:15.695Z,19.86
2016-12-06T01:40:26.038Z,19.82
2016-12-06T01:41:36.390Z,19.82
2016-12-06T01:42:46.741Z,19.82
2016-12-06T01:43:57.078Z,19.67
2016-12-06T01:45:07.640Z,19.7
2016-12-06T01:46:17.982Z,19.78
2016-12-06T01:47:28.367Z,19.82
2016-12-06T01:48:38.760Z,19.78
2016-12-06T01:49:49.099Z,19.71
2016-12-06T01:50:59.658Z,19.61
2016-12-06T01:52:10.028Z,19.57
2016-12-06T01:53:20.368Z,19.61
2016-12-06T01:54:30.728Z,19.68
2016-12-06T01:55:41.081Z,19.58
2016-12-06T01:56:51.449Z,19.67
2016-12-06T01:58:01.824Z,19.52
2016-12-06T01:59:12.179Z,19.53
2016-12-06T02:00:22.536Z,19.49
2016-12-06T02:01:32.896Z,19.5
2016-12-06T02:02:43.271Z,19.47
2016-12-06T02:03:53.633Z,19.57
2016-12-06T02:05:03.989Z,19.5
2016-12-06T02:06:14.337Z,19.6
2016-12-06T02:07:24.698Z,19.53
2016-12-06T02:08:35.049Z,19.49
2016-12-06T02:09:45.402Z,19.5
2016-12-06T02:10:55.759Z,19.55
2016-12-06T02:12:06.116Z,19.49
2016-12-06T02:13:16.483Z,19.5
2016-12-06T02:14:26.827Z,19.57
2016-12-06T02:15:37.178Z,19.55
2016-12-06T02:16:47.530Z,19.45
2016-12-06T02:17:57.876Z,19.53
2016-12-06T02:19:08.231Z,19.57
2016-12-06T02:20:18.557Z,19.52
2016-12-06T02:21:28.915Z,19.62
2016-12-06T02:22:39.281Z,19.62
2016-12-06T02:23:49.623Z,19.6
2016-12-06T02:24:59.974Z,19.43
2016-12-06T02:26:10.509Z,19.5
2016-12-06T02:27:20.857Z,19.53
2016-12-06T02:28:31.177Z,19.39
2016-12-06T02:29:41.995Z,19.42
2016-12-06T02:30:52.332Z,19.35
2016-12-06T02:33:27.835Z,19.24
2016-12-06T02:34:38.274Z,19.27
2016-12-06T02:35:48.719Z,19.25
2016-12-06T02:36:59.363Z,19.25
2016-12-06T02:38:09.800Z,19.3
2016-12-06T02:39:20.256Z,19.3
2016-12-06T02:40:30.703Z,19.24
2016-12-06T02:41:55.697Z,19.27
2016-12-06T02:43:06.346Z,19.34
2016-12-06T02:44:16.785Z,19.35
2016-12-06T02:45:27.214Z,19.31
2016-12-06T02:46:37.704Z,19.32
2016-12-06T02:47:48.458Z,19.3
2016-12-06T02:48:59.023Z,19.32
2016-12-06T02:50:09.570Z,19.34
2016-12-06T02:51:20.119Z,19.43
2016-12-06T02:52:30.689Z,19.32
2016-12-06T02:53:41.449Z,19.39
2016-12-06T02:54:53.028Z,19.45
2016-12-06T02:56:03.582Z,19.45
2016-12-06T02:57:14.535Z,19.45
2016-12-06T02:58:25.085Z,19.43
2016-12-06T02:59:35.645Z,19.49
2016-12-06T03:00:46.222Z,19.5
2016-12-06T03:01:56.776Z,19.38
2016-12-06T03:03:07.348Z,19.43
2016-12-06T03:04:17.900Z,19.38
2016-12-06T03:05:28.663Z,19.38
2016-12-06T03:06:39.221Z,19.34
2016-12-06T03:09:15.065Z,19.35
2016-12-06T03:10:25.641Z,19.31
2016-12-06T03:11:36.215Z,19.27
2016-12-06T03:12:46.771Z,19.32
2016-12-06T03:13:57.308Z,19.38
2016-12-06T03:15:07.862Z,19.38
2016-12-06T03:16:18.439Z,19.43
2016-12-06T03:17:43.526Z,19.45
2016-12-06T03:18:54.058Z,19.45
2016-12-06T03:20:04.624Z,19.46
2016-12-06T03:21:15.188Z,19.53
2016-12-06T03:22:26.142Z,19.53
2016-12-06T03:23:37.207Z,19.53
2016-12-06T03:24:47.766Z,19.5
2016-12-06T03:25:58.334Z,19.55
2016-12-06T03:27:09.081Z,19.5
2016-12-06T03:28:19.834Z,19.57
2016-12-06T03:29:59.454Z,19.53
2016-12-06T03:31:10.001Z,19.53
2016-12-06T03:32:21.266Z,19.53
2016-12-06T03:33:31.836Z,19.45
2016-12-06T03:34:42.416Z,19.46
2016-12-06T03:35:52.974Z,19.52
2016-12-06T03:37:03.563Z,19.42
2016-12-06T03:38:14.205Z,19.43
2016-12-06T03:39:24.770Z,19.35
2016-12-06T03:40:35.344Z,19.43
2016-12-06T03:41:45.912Z,19.46
2016-12-06T03:42:56.465Z,19.49
2016-12-06T03:44:07.032Z,19.42
2016-12-06T03:45:17.596Z,19.45
2016-12-06T03:46:42.700Z,19.46
2016-12-06T03:47:53.256Z,19.43
2016-12-06T03:49:03.948Z,19.5
2016-12-06T03:50:14.501Z,19.46
2016-12-06T03:51:25.071Z,19.55
2016-12-06T03:52:35.647Z,19.52
2016-12-06T03:54:00.719Z,19.49
2016-12-06T03:55:11.471Z,19.53
2016-12-06T03:56:22.023Z,19.52
2016-12-06T03:57:32.572Z,19.55
2016-12-06T03:58:43.111Z,19.5
2016-12-06T03:59:53.853Z,19.55
2016-12-06T04:01:04.424Z,19.49
2016-12-06T04:02:15.016Z,19.46
2016-12-06T04:04:50.649Z,19.52
2016-12-06T04:06:01.205Z,19.46
2016-12-06T04:07:11.765Z,19.38
2016-12-06T04:08:22.324Z,19.34
2016-12-06T04:09:32.866Z,19.28
2016-12-06T04:10:43.448Z,19.3
2016-12-06T04:11:54.022Z,19.17
2016-12-06T04:13:04.581Z,19.17
2016-12-06T04:14:15.132Z,19.13
2016-12-06T04:15:25.689Z,19.23
2016-12-06T04:16:36.244Z,19.13
2016-12-06T04:17:46.788Z,19.27
2016-12-06T04:18:57.360Z,19.28
2016-12-06T04:20:07.944Z,19.15
2016-12-06T04:21:18.981Z,19.2
2016-12-06T04:22:29.731Z,19.13
2016-12-06T04:23:54.823Z,19.16
2016-12-06T04:25:05.370Z,19.15
2016-12-06T04:26:15.924Z,19.1
2016-12-06T04:27:26.464Z,19.12
2016-12-06T04:28:37.011Z,19.1
2016-12-06T04:30:02.109Z,19.05
2016-12-06T04:31:12.583Z,18.94
2016-12-06T04:32:23.006Z,18.97
2016-12-06T04:33:33.426Z,18.97
2016-12-06T04:34:43.836Z,18.96
2016-12-06T04:35:54.243Z,18.86
2016-12-06T04:37:04.660Z,18.87
2016-12-06T04:38:15.270Z,18.84
2016-12-06T04:39:25.673Z,18.82
2016-12-06T04:40:36.089Z,18.83
2016-12-06T04:41:46.496Z,18.9
2016-12-06T04:42:56.908Z,18.87
2016-12-06T04:44:07.527Z,18.83
2016-12-06T04:45:17.936Z,18.84
2016-12-06T04:46:28.340Z,18.84
2016-12-06T04:47:38.690Z,18.76
2016-12-06T04:48:49.032Z,18.76
2016-12-06T04:49:59.341Z,18.78
2016-12-06T04:51:09.654Z,18.69
2016-12-06T04:52:19.965Z,18.72
2016-12-06T04:53:30.278Z,18.68
2016-12-06T04:54:40.591Z,18.69
2016-12-06T04:55:51.107Z,18.69
2016-12-06T04:57:01.420Z,18.71
2016-12-06T04:58:11.733Z,18.66
2016-12-06T04:59:22.053Z,18.72
2016-12-06T05:00:32.409Z,18.66
2016-12-06T05:01:42.920Z,18.57
2016-12-06T05:02:53.233Z,18.59
2016-12-06T05:04:03.553Z,18.53
2016-12-06T05:05:13.871Z,18.59
2016-12-06T05:06:24.191Z,18.5
2016-12-06T05:07:34.506Z,18.54
2016-12-06T05:08:44.828Z,18.47
2016-12-06T05:09:55.140Z,18.38
2016-12-06T05:11:05.461Z,18.39
2016-12-06T05:12:15.780Z,18.36
2016-12-06T05:13:26.301Z,18.41
2016-12-06T05:14:36.612Z,18.46
2016-12-06T05:15:46.932Z,18.35
2016-12-06T05:16:57.268Z,18.38
2016-12-06T05:18:07.582Z,18.41
2016-12-06T05:19:17.905Z,18.39
2016-12-06T05:20:28.218Z,18.44
2016-12-06T05:21:38.531Z,18.39
2016-12-06T05:22:48.846Z,18.5
2016-12-06T05:23:59.636Z,18.51
2016-12-06T05:25:09.953Z,18.41
2016-12-06T05:26:20.275Z,18.44
2016-12-06T05:27:30.587Z,18.41
2016-12-06T05:28:40.900Z,18.41
2016-12-06T05:29:51.217Z,18.42
2016-12-06T05:31:01.729Z,18.39
2016-12-06T05:33:51.588Z,18.47
2016-12-06T05:35:01.993Z,18.54
2016-12-06T05:36:12.406Z,18.5
2016-12-06T05:37:23.297Z,18.41
2016-12-06T05:38:33.709Z,18.54
2016-12-06T05:39:44.110Z,18.53
2016-12-06T05:40:54.521Z,18.53
2016-12-06T05:42:04.934Z,18.57
2016-12-06T05:43:15.339Z,18.6
2016-12-06T05:44:25.748Z,18.51
2016-12-06T05:45:36.152Z,18.69
2016-12-06T05:46:46.563Z,18.59
2016-12-06T05:47:57.171Z,18.62
2016-12-06T05:49:07.580Z,18.56
2016-12-06T05:50:17.989Z,18.53
2016-12-06T05:51:28.395Z,18.54
2016-12-06T05:52:38.799Z,18.53
2016-12-06T05:53:49.407Z,18.54
2016-12-06T05:54:59.839Z,18.51
2016-12-06T05:56:10.246Z,18.49
2016-12-06T05:57:20.658Z,18.46
2016-12-06T05:58:31.061Z,18.46
2016-12-06T05:59:41.469Z,18.44
2016-12-06T06:00:52.379Z,18.47
2016-12-06T06:02:02.802Z,18.53
2016-12-06T06:03:13.213Z,18.51
2016-12-06T06:04:38.371Z,18.46
2016-12-06T06:05:48.773Z,18.53
2016-12-06T06:06:59.179Z,18.51
2016-12-06T06:08:10.066Z,18.51
2016-12-06T06:09:20.964Z,18.46
2016-12-06T06:10:31.373Z,18.49
2016-12-06T06:11:41.778Z,18.51
2016-12-06T06:12:52.187Z,18.53
2016-12-06T06:14:02.593Z,18.47
2016-12-06T06:15:13.061Z,18.49
2016-12-06T06:16:23.587Z,18.53
2016-12-06T06:17:34.113Z,18.36
2016-12-06T06:18:44.637Z,18.35
2016-12-06T06:19:55.161Z,18.36
2016-12-06T06:21:05.683Z,18.42
2016-12-06T06:22:16.415Z,18.38
2016-12-06T06:23:27.438Z,18.46
2016-12-06T06:24:37.960Z,18.36
2016-12-06T06:25:48.485Z,18.39
2016-12-06T06:26:59.012Z,18.41
2016-12-06T06:28:09.740Z,18.42
2016-12-06T06:29:20.280Z,18.42
2016-12-06T06:30:30.807Z,18.51
2016-12-06T06:31:41.330Z,18.42
2016-12-06T06:32:51.852Z,18.42
2016-12-06T06:34:02.576Z,18.42
2016-12-06T06:35:13.101Z,18.41
2016-12-06T06:36:23.626Z,18.44
2016-12-06T06:37:34.172Z,18.41
2016-12-06T06:38:45.192Z,18.46
2016-12-06T06:39:55.917Z,18.39
2016-12-06T06:41:06.448Z,18.41
2016-12-06T06:42:16.974Z,18.41
2016-12-06T06:43:27.496Z,18.41
2016-12-06T06:44:38.524Z,18.39
2016-12-06T06:45:49.045Z,18.36
2016-12-06T06:46:59.567Z,18.41
2016-12-06T06:48:10.092Z,18.38
2016-12-06T06:49:20.613Z,18.35
2016-12-06T06:50:31.136Z,18.34
2016-12-06T06:51:56.388Z,18.41
2016-12-06T06:53:06.918Z,18.38
2016-12-06T06:54:17.446Z,18.29
2016-12-06T06:55:27.969Z,18.41
2016-12-06T06:56:38.493Z,18.29
2016-12-06T06:57:49.018Z,18.36
2016-12-06T06:58:59.543Z,18.36
2016-12-06T07:00:10.066Z,18.32
2016-12-06T07:01:35.219Z,18.21
2016-12-06T07:02:45.685Z,18.21
2016-12-06T07:03:56.128Z,18.19
2016-12-06T07:05:06.559Z,18.19
2016-12-06T07:06:16.986Z,18.28
2016-12-06T07:07:27.620Z,18.23
2016-12-06T07:08:38.543Z,18.26
2016-12-06T07:09:48.976Z,18.26
2016-12-06T07:10:59.410Z,18.39
2016-12-06T07:12:09.840Z,18.34
2016-12-06T07:13:20.469Z,18.35
2016-12-06T07:14:30.902Z,18.38
2016-12-06T07:15:41.366Z,18.36
2016-12-06T07:16:51.795Z,18.23
2016-12-06T07:18:02.228Z,18.31
2016-12-06T07:19:12.859Z,18.34
2016-12-06T07:20:23.293Z,18.32
2016-12-06T07:21:34.209Z,18.38
2016-12-06T07:22:44.641Z,18.26
2016-12-06T07:23:55.070Z,18.21
2016-12-06T07:25:05.653Z,18.2
2016-12-06T07:26:15.996Z,18.13
2016-12-06T07:27:26.315Z,18.28
2016-12-06T07:28:36.627Z,18.21
2016-12-06T07:29:46.949Z,18.21
2016-12-06T07:31:11.828Z,18.25
2016-12-06T07:33:47.026Z,18.21
2016-12-06T07:34:57.342Z,18.1
2016-12-06T07:36:07.652Z,18.1
2016-12-06T07:37:32.539Z,18.02
2016-12-06T07:38:42.849Z,18.02
2016-12-06T07:39:53.162Z,18.1
2016-12-06T07:41:03.480Z,18.11
2016-12-06T07:42:14.501Z,18.05
2016-12-06T07:43:24.814Z,18.1
2016-12-06T07:44:35.129Z,18.11
2016-12-06T07:45:45.444Z,18.16
2016-12-06T07:46:55.967Z,18.13
2016-12-06T07:48:06.338Z,18.19
2016-12-06T07:49:16.740Z,18.2
2016-12-06T07:50:27.147Z,18.2
2016-12-06T07:52:06.850Z,18.2
2016-12-06T07:53:17.255Z,18.17
2016-12-06T07:54:27.666Z,18.11
2016-12-06T07:55:38.067Z,18.17
2016-12-06T07:56:48.474Z,18.19
2016-12-06T07:57:59.113Z,18.19
2016-12-06T07:59:09.522Z,18.19
2016-12-06T08:00:19.936Z,18.17
2016-12-06T08:01:30.344Z,18.21
2016-12-06T08:02:40.745Z,18.21
2016-12-06T08:03:51.184Z,18.19
2016-12-06T08:05:02.072Z,18.17
2016-12-06T08:06:12.969Z,18.17
2016-12-06T08:07:23.378Z,18.23
2016-12-06T08:08:33.783Z,18.25
2016-12-06T08:09:44.385Z,18.25
2016-12-06T08:10:54.789Z,18.2
2016-12-06T08:12:05.197Z,18.2
2016-12-06T08:13:16.093Z,18.2
2016-12-06T08:14:26.496Z,18.19
2016-12-06T08:15:37.105Z,18.2
2016-12-06T08:16:47.512Z,18.2
2016-12-06T08:18:12.468Z,18.31
2016-12-06T08:19:22.877Z,18.23
2016-12-06T08:20:33.290Z,18.21
2016-12-06T08:21:58.242Z,18.35
2016-12-06T08:23:08.650Z,18.26
2016-12-06T08:24:19.051Z,18.2
2016-12-06T08:25:29.460Z,18.23
2016-12-06T08:26:39.867Z,18.28
2016-12-06T08:27:50.270Z,18.23
2016-12-06T08:29:00.679Z,18.25
2016-12-06T08:30:11.085Z,18.19
2016-12-06T08:40:28.281Z,18.38
2016-12-06T08:41:38.803Z,18.34
2016-12-06T08:42:49.329Z,18.34
2016-12-06T08:43:59.854Z,18.31
2016-12-06T08:45:10.377Z,18.26
2016-12-06T08:46:21.395Z,18.23
2016-12-06T08:47:32.416Z,18.32
2016-12-06T08:48:42.940Z,18.2
2016-12-06T08:49:53.463Z,18.16
2016-12-06T08:51:18.512Z,18.16
2016-12-06T08:52:29.537Z,18.14
2016-12-06T08:53:40.061Z,18.16
2016-12-06T08:54:50.618Z,18.14
2016-12-06T08:56:15.676Z,18.2
2016-12-06T08:57:26.706Z,18.14
2016-12-06T08:58:37.228Z,18.19
2016-12-06T08:59:47.861Z,18.2
2016-12-06T09:00:58.401Z,18.21
2016-12-06T09:02:08.951Z,18.21
2016-12-06T09:03:19.475Z,18.26
2016-12-06T09:04:30.202Z,18.26
2016-12-06T09:05:40.727Z,18.14
2016-12-06T09:06:51.763Z,18.23
2016-12-06T09:08:02.285Z,18.21
2016-12-06T09:09:12.812Z,18.26
2016-12-06T09:10:23.336Z,18.34
2016-12-06T09:11:33.859Z,18.35
2016-12-06T09:12:44.382Z,18.36
2016-12-06T09:14:09.434Z,18.39
2016-12-06T09:15:19.956Z,18.39
2016-12-06T09:16:30.480Z,18.44
2016-12-06T09:17:40.951Z,18.46
2016-12-06T09:18:51.384Z,18.51
2016-12-06T09:20:01.848Z,18.49
2016-12-06T09:21:12.781Z,18.54
2016-12-06T09:22:23.210Z,18.53
2016-12-06T09:23:48.186Z,18.54
2016-12-06T09:24:58.615Z,18.44
2016-12-06T09:26:09.245Z,18.5
2016-12-06T09:27:19.684Z,18.54
2016-12-06T09:28:30.123Z,18.41
2016-12-06T09:29:55.098Z,18.53
2016-12-06T09:31:05.530Z,18.5
2016-12-06T09:32:15.971Z,18.44
2016-12-06T09:33:26.411Z,18.44
2016-12-06T09:34:36.841Z,18.46
2016-12-06T09:35:47.275Z,18.47
2016-12-06T09:36:57.904Z,18.5
2016-12-06T09:38:08.339Z,18.57
2016-12-06T09:39:18.778Z,18.64
2016-12-06T09:40:29.211Z,18.68
2016-12-06T09:41:39.647Z,18.76
2016-12-06T09:42:50.289Z,18.83
2016-12-06T09:44:00.727Z,18.76
2016-12-06T09:45:11.158Z,18.82
2016-12-06T09:46:36.133Z,18.71
2016-12-06T09:47:46.563Z,18.68
2016-12-06T09:48:56.999Z,18.78
2016-12-06T09:50:07.430Z,18.82
2016-12-06T09:51:32.400Z,18.83
2016-12-06T09:52:42.839Z,18.9
2016-12-06T09:53:53.272Z,18.86
2016-12-06T09:55:03.749Z,18.9
2016-12-06T09:56:14.177Z,18.96
2016-12-06T09:57:24.609Z,18.97
2016-12-06T09:58:49.786Z,18.99
2016-12-06T10:00:00.215Z,18.99
2016-12-06T10:01:10.648Z,19.09
2016-12-06T10:02:21.074Z,19.06
2016-12-06T10:03:31.989Z,19.1
2016-12-06T10:04:42.619Z,19.01
2016-12-06T10:05:53.046Z,18.93
2016-12-06T10:07:03.486Z,19.13
2016-12-06T10:08:13.945Z,19.06
2016-12-06T10:09:24.378Z,19.06
2016-12-06T10:10:34.809Z,19.1
2016-12-06T10:11:45.238Z,19.1
2016-12-06T10:12:55.666Z,19.1
2016-12-06T10:14:06.095Z,19.13
2016-12-06T10:15:16.527Z,19.16
2016-12-06T10:16:27.055Z,19.16
2016-12-06T10:17:37.481Z,19.2
2016-12-06T10:18:47.913Z,19.13
2016-12-06T10:20:12.889Z,19.2
2016-12-06T10:21:23.519Z,19.2
2016-12-06T10:22:33.946Z,19.23
2016-12-06T10:23:44.374Z,19.27
2016-12-06T10:24:55.304Z,19.16
2016-12-06T10:26:05.735Z,19.24
2016-12-06T10:27:16.368Z,19.2
2016-12-06T10:28:26.797Z,19.23
2016-12-06T10:29:37.237Z,19.24
2016-12-06T10:31:03.245Z,19.3
2016-12-06T10:32:13.678Z,19.4
2016-12-06T10:33:24.604Z,19.49
2016-12-06T10:34:35.033Z,19.52
2016-12-06T10:35:45.956Z,19.49
2016-12-06T10:36:56.385Z,19.49
2016-12-06T10:38:06.816Z,19.5
2016-12-06T10:39:17.775Z,19.53
2016-12-06T10:40:28.226Z,19.5
2016-12-06T10:41:38.655Z,19.53
2016-12-06T10:42:49.086Z,19.55
2016-12-06T10:43:59.718Z,19.55
2016-12-06T10:45:10.167Z,19.58
2016-12-06T10:46:21.589Z,19.58
2016-12-06T10:47:32.025Z,19.64
2016-12-06T10:50:21.974Z,19.76
2016-12-06T10:51:32.402Z,19.78
2016-12-06T10:52:42.781Z,19.86
2016-12-06T10:53:53.097Z,19.83
2016-12-06T10:55:03.614Z,19.98
2016-12-06T10:56:13.973Z,19.94
2016-12-06T10:57:24.290Z,20.01
2016-12-06T10:59:59.683Z,20
2016-12-06T11:01:10.000Z,20.02
2016-12-06T11:02:20.314Z,20.13
2016-12-06T11:03:30.647Z,20.17
2016-12-06T11:04:40.956Z,20.2
2016-12-06T11:05:51.270Z,20.33
2016-12-06T11:07:16.631Z,20.27
2016-12-06T11:08:26.950Z,20.37
2016-12-06T11:09:37.264Z,20.38
2016-12-06T11:10:47.574Z,20.34
2016-12-06T11:11:57.916Z,20.37
2016-12-06T11:13:22.810Z,20.38
2016-12-06T11:14:33.126Z,20.6
2016-12-06T11:15:43.435Z,20.71
2016-12-06T11:16:53.955Z,20.82
2016-12-06T11:18:04.269Z,20.88
2016-12-06T11:19:14.583Z,20.91
2016-12-06T11:20:24.900Z,21.01
2016-12-06T11:21:49.982Z,21.08
2016-12-06T11:23:00.298Z,21.12
2016-12-06T11:24:10.612Z,21.26
2016-12-06T11:25:20.924Z,21.24
2016-12-06T11:26:31.241Z,21.31
2016-12-06T11:27:41.653Z,21.42
2016-12-06T11:29:06.537Z,21.66
2016-12-06T11:30:16.855Z,21.74
2016-12-06T11:31:27.208Z,21.86
2016-12-06T11:32:38.222Z,22.02
2016-12-06T11:33:48.539Z,21.77
2016-12-06T11:34:58.860Z,21.77
2016-12-06T11:36:09.180Z,21.89
2016-12-06T11:37:19.492Z,22.14
2016-12-06T11:38:29.805Z,22.26
2016-12-06T11:39:40.116Z,22.41
2016-12-06T11:40:50.426Z,22.59
2016-12-06T11:42:00.739Z,22.82
2016-12-06T11:43:11.080Z,23.01
2016-12-06T11:44:21.602Z,23.11
2016-12-06T11:45:46.488Z,23.42
2016-12-06T11:46:57.286Z,23.47
2016-12-06T11:48:07.606Z,23.52
2016-12-06T11:49:33.474Z,23.6
2016-12-06T11:50:44.300Z,23.69
2016-12-06T11:51:54.612Z,23.87
2016-12-06T11:53:05.413Z,23.92
2016-12-06T11:54:16.230Z,23.96
2016-12-06T11:55:26.554Z,24
2016-12-06T11:56:36.870Z,24.02
2016-12-06T11:57:47.184Z,24.26
2016-12-06T11:58:57.497Z,24.33
2016-12-06T12:00:07.817Z,24.24
2016-12-06T12:01:18.232Z,24.26
2016-12-06T12:02:28.610Z,24.29
2016-12-06T12:03:53.586Z,24.36
2016-12-06T12:05:04.016Z,24.46
2016-12-06T12:06:14.648Z,24.63
2016-12-06T12:07:25.081Z,24.87
2016-12-06T12:08:35.515Z,24.93
2016-12-06T12:09:45.948Z,24.99
2016-12-06T12:10:56.384Z,25.05
2016-12-06T12:12:07.018Z,25.11
2016-12-06T12:13:17.452Z,25.29
2016-12-06T12:14:27.906Z,25.39
2016-12-06T12:15:38.345Z,25.41
2016-12-06T12:16:48.785Z,25.49
2016-12-06T12:17:59.485Z,25.78
2016-12-06T12:19:10.020Z,25.78
2016-12-06T12:20:20.547Z,26
2016-12-06T12:21:31.082Z,26.06
2016-12-06T12:24:06.683Z,26.27
2016-12-06T12:25:17.210Z,26.16
2016-12-06T12:26:27.741Z,26.36
2016-12-06T12:27:52.796Z,26.66
2016-12-06T12:29:03.357Z,26.69
2016-12-06T12:30:13.884Z,26.91
2016-12-06T12:31:24.415Z,27.01
2016-12-06T12:32:34.951Z,26.84
2016-12-06T12:33:45.477Z,26.91
2016-12-06T12:34:56.204Z,27.16
2016-12-06T12:36:06.743Z,27.31
2016-12-06T12:37:17.219Z,27.45
2016-12-06T12:39:52.603Z,27.61
2016-12-06T12:41:03.014Z,27.65
2016-12-06T12:42:13.911Z,27.65
2016-12-06T12:43:24.326Z,27.59
2016-12-06T12:44:35.221Z,27.77
2016-12-06T12:45:46.315Z,27.71
2016-12-06T12:46:56.726Z,27.74
2016-12-06T12:48:07.134Z,27.88
2016-12-06T12:49:18.031Z,27.84
2016-12-06T12:50:28.441Z,27.76
2016-12-06T12:51:38.850Z,27.95
2016-12-06T12:52:49.258Z,28.14
2016-12-06T12:53:59.789Z,28.36
2016-12-06T12:55:10.202Z,28.46
2016-12-06T12:56:20.616Z,28.55
2016-12-06T12:57:31.225Z,28.62
2016-12-06T12:58:41.640Z,28.58
2016-12-06T12:59:52.080Z,28.58
2016-12-06T13:01:02.489Z,28.57
2016-12-06T13:02:12.898Z,28.52
2016-12-06T13:03:23.511Z,28.43
2016-12-06T13:04:33.932Z,28.25
2016-12-06T13:05:45.463Z,28.23
2016-12-06T13:06:55.878Z,28.32
2016-12-06T13:08:06.803Z,28.21
2016-12-06T13:09:17.930Z,28.17
2016-12-06T13:10:28.543Z,28.15
2016-12-06T13:11:39.219Z,28.08
2016-12-06T13:12:49.704Z,28.24
2016-12-06T13:14:00.238Z,28.32
2016-12-06T13:15:10.776Z,28.46
2016-12-06T13:16:21.308Z,28.7
2016-12-06T13:17:31.837Z,28.74
2016-12-06T13:18:56.897Z,29
2016-12-06T13:20:07.678Z,29.11
2016-12-06T13:21:18.211Z,29.17
2016-12-06T13:22:29.242Z,28.97
2016-12-06T13:23:54.306Z,28.85
2016-12-06T13:25:04.836Z,28.87
2016-12-06T13:26:15.369Z,28.98
2016-12-06T13:27:25.917Z,28.92
2016-12-06T13:28:36.453Z,28.64
2016-12-06T13:29:46.986Z,28.69
2016-12-06T13:30:57.720Z,28.76
2016-12-06T13:33:33.822Z,29.1
2016-12-06T13:34:44.355Z,29.27
2016-12-06T13:35:55.098Z,29.52
2016-12-06T13:37:20.162Z,29.66
2016-12-06T13:38:30.699Z,29.63
2016-12-06T13:39:41.228Z,29.94
2016-12-06T13:40:51.765Z,30.01
2016-12-06T13:42:02.496Z,30.13
2016-12-06T13:43:13.046Z,30.25
2016-12-06T13:44:23.587Z,30.44
2016-12-06T13:47:14.159Z,30.57
2016-12-06T13:48:24.599Z,30.54
2016-12-06T13:49:35.074Z,30.38
2016-12-06T13:50:45.511Z,30.51
2016-12-06T13:51:55.947Z,30.63
2016-12-06T13:53:06.392Z,30.49
2016-12-06T13:54:16.835Z,30.46
2016-12-06T13:55:27.275Z,30.51
2016-12-06T13:56:37.717Z,30.73
2016-12-06T13:57:48.159Z,30.85
2016-12-06T13:58:58.599Z,30.96
2016-12-06T14:00:09.557Z,30.94
2016-12-06T14:01:20.008Z,30.75
2016-12-06T14:02:30.452Z,30.63
2016-12-06T14:03:55.475Z,30.81
2016-12-06T14:05:05.921Z,30.93
2016-12-06T14:06:30.914Z,31.12
2016-12-06T14:07:41.358Z,31.12
2016-12-06T14:08:51.806Z,31.2
2016-12-06T14:10:02.973Z,31.49
2016-12-06T14:11:13.417Z,31.27
2016-12-06T14:12:24.364Z,31.35
2016-12-06T14:13:34.808Z,31.5
2016-12-06T14:14:45.254Z,31.6
2016-12-06T14:15:55.702Z,31.71
2016-12-06T14:17:06.144Z,31.84
2016-12-06T14:18:16.592Z,31.85
2016-12-06T14:19:27.032Z,31.85
2016-12-06T14:20:37.475Z,31.79
2016-12-06T14:21:47.925Z,31.78
2016-12-06T14:22:58.855Z,31.84
2016-12-06T14:24:09.308Z,31.88
2016-12-06T14:25:19.751Z,32.03
2016-12-06T14:26:30.203Z,32.02
2016-12-06T14:29:05.652Z,31.78
2016-12-06T14:30:16.094Z,31.82
2016-12-06T14:31:26.734Z,31.85
2016-12-06T14:32:37.174Z,31.87
2016-12-06T14:34:02.169Z,31.84
2016-12-06T14:35:13.102Z,31.79
2016-12-06T14:36:23.552Z,31.74
2016-12-06T14:37:34.023Z,31.76
2016-12-06T14:38:44.462Z,31.88
2016-12-06T14:39:54.902Z,31.9
2016-12-06T14:41:05.346Z,31.79
2016-12-06T14:42:15.889Z,31.79
2016-12-06T14:43:26.335Z,31.97
2016-12-06T14:44:36.781Z,31.87
2016-12-06T14:45:47.225Z,31.85
2016-12-06T14:46:57.668Z,32.02
2016-12-06T14:48:09.944Z,31.95
2016-12-06T14:49:20.881Z,32.05
2016-12-06T14:50:31.331Z,32.28
2016-12-06T14:51:41.783Z,32.41
2016-12-06T14:52:52.232Z,32.58
2016-12-06T14:54:03.170Z,32.44
2016-12-06T14:55:14.151Z,32.16
2016-12-06T14:56:24.599Z,32.25
2016-12-06T14:57:35.042Z,32.35
2016-12-06T14:58:45.521Z,32.24
2016-12-06T14:59:55.981Z,31.97
2016-12-06T15:01:20.980Z,31.78
2016-12-06T15:02:31.430Z,31.62
2016-12-06T15:03:41.869Z,31.53
2016-12-06T15:04:52.319Z,31.53
2016-12-06T15:06:02.769Z,31.45
2016-12-06T15:07:13.217Z,31.12
2016-12-06T15:09:48.668Z,31.09
2016-12-06T15:11:13.872Z,30.85
2016-12-06T15:12:24.313Z,30.34
2016-12-06T15:13:34.760Z,30.37
2016-12-06T15:14:45.213Z,30.51
2016-12-06T15:15:55.670Z,30.63
2016-12-06T15:17:06.202Z,30.37
2016-12-06T15:18:16.738Z,30.08
2016-12-06T15:19:27.308Z,29.74
2016-12-06T15:20:52.585Z,29.99
2016-12-06T15:22:03.639Z,30.01
2016-12-06T15:23:14.182Z,30.07
2016-12-06T15:24:39.300Z,30.28
2016-12-06T15:26:04.573Z,30.28
2016-12-06T15:27:29.658Z,30.21
2016-12-06T15:28:40.218Z,30.07
2016-12-06T15:30:05.340Z,30.13
2016-12-06T15:31:15.896Z,29.97
2016-12-06T15:32:26.374Z,29.95
2016-12-06T15:33:36.792Z,30.01
2016-12-06T15:34:47.216Z,30.15
2016-12-06T15:35:57.628Z,30.11
2016-12-06T15:37:08.050Z,30.15
2016-12-06T15:38:18.478Z,30.18
2016-12-06T15:39:28.920Z,30.21
2016-12-06T15:40:39.361Z,30.01
2016-12-06T15:41:49.798Z,29.95
2016-12-06T15:43:00.463Z,29.92
2016-12-06T15:44:11.420Z,29.86
2016-12-06T15:45:21.852Z,29.88
2016-12-06T15:46:32.282Z,30.01
2016-12-06T15:47:42.715Z,30.07
2016-12-06T15:50:18.333Z,29.7
2016-12-06T15:51:28.762Z,29.54
2016-12-06T15:52:39.201Z,29.49
2016-12-06T15:53:49.642Z,29.54
2016-12-06T15:55:00.079Z,29.54
2016-12-06T15:56:10.524Z,29.63
2016-12-06T15:57:21.463Z,29.6
2016-12-06T15:58:31.897Z,29.62